Time;durP1;ratioP1;P1;durP2;ratioP2;P2;SDS_P1;SDS_P2;PMS_P1;PMS_P2;Temp;Humidity;BMP_temperature;BMP_pressure;BME280_temperature;BME280_humidity;BME280_pressure;Samples;Min_cycle;Max_cycle;Signal;HPM_P1;HPM_P2
2021/01/21 00:00:49;;;;;;;;;;;;;;;3.80;100.00;99253.38;5111503;28;20010;-75
2021/01/21 00:03:15;;;;;;;;;;;;;;;3.94;100.00;99261.25;5111671;28;20023;-75
2021/01/21 00:05:40;;;;;;;;;;;;;;;3.98;100.00;99251.97;5111006;28;19928;-75
2021/01/21 00:08:06;;;;;;;;;;;;;;;4.09;100.00;99253.81;5111527;28;20304;-75
2021/01/21 00:10:32;;;;;;;;;;;;;;;4.17;100.00;99256.75;5111731;28;20483;-75
2021/01/21 00:12:58;;;;;;;;;;;;;;;4.19;100.00;99257.47;5111591;28;19924;-75
2021/01/21 00:15:25;;;;;;;;;;;;;;;4.28;100.00;99252.41;5111449;28;20017;-75
2021/01/21 00:17:50;;;;;;;;;;;;;;;4.28;100.00;99253.25;5111373;28;19923;-75
2021/01/21 00:20:16;;;;;;;;;;;;;;;4.21;100.00;99251.16;5111421;28;19942;-74
2021/01/21 00:22:42;;;;;;;;;;;;;;;4.16;100.00;99254.19;5111200;28;19931;-75
2021/01/21 00:25:08;;;;;;;;;;;;;;;4.10;100.00;99250.16;5111353;28;19981;-74
2021/01/21 00:27:34;;;;;;;;;;;;;;;4.06;100.00;99254.03;5111229;28;19955;-75
2021/01/21 00:30:00;;;;;;;;;;;;;;;4.21;100.00;99243.97;5111507;28;19923;-75
2021/01/21 00:32:26;;;;;;;;;;;;;;;4.35;100.00;99237.50;5111391;28;19931;-74
2021/01/21 00:34:52;;;;;;;;;;;;;;;4.36;100.00;99233.84;5111396;28;20026;-75
2021/01/21 00:37:18;;;;;;;;;;;;;;;4.39;100.00;99227.38;5111069;28;20377;-74
2021/01/21 00:39:44;;;;;;;;;;;;;;;4.36;100.00;99223.94;5110902;28;19928;-75
2021/01/21 00:42:09;;;;;;;;;;;;;;;4.41;100.00;99220.88;5114332;28;19934;-74
2021/01/21 00:44:35;;;;;;;;;;;;;;;4.34;100.00;99222.34;5114951;28;19923;-74
2021/01/21 00:47:02;;;;;;;;;;;;;;;4.31;100.00;99227.97;5114776;28;20421;-75
2021/01/21 00:49:28;;;;;;;;;;;;;;;4.25;100.00;99220.38;5115024;28;19940;-75
2021/01/21 00:51:54;;;;;;;;;;;;;;;4.19;100.00;99227.09;5113592;28;19924;-75
2021/01/21 00:54:20;;;;;;;;;;;;;;;4.20;100.00;99223.44;5114751;28;20303;-75
2021/01/21 00:56:46;;;;;;;;;;;;;;;4.32;100.00;99210.88;5113298;28;19968;-74
2021/01/21 00:59:12;;;;;;;;;;;;;;;4.36;100.00;99205.13;5114054;28;19935;-75
2021/01/21 01:01:38;;;;;;;;;;;;;;;4.30;100.00;99208.31;5114635;28;19931;-75
2021/01/21 01:04:08;;;;;;;;;;;;;;;4.27;100.00;99205.00;5114605;28;19935;-75
2021/01/21 01:06:37;;;;;;;;;;;;;;;4.21;100.00;99205.47;5113186;28;19984;-74
2021/01/21 01:09:04;;;;;;;;;;;;;;;4.19;100.00;99217.19;5113350;28;19935;-74
2021/01/21 01:11:30;;;;;;;;;;;;;;;4.21;100.00;99203.66;5114627;28;19928;-74
2021/01/21 01:13:56;;;;;;;;;;;;;;;4.16;100.00;99198.63;5113069;28;19930;-74
2021/01/21 01:16:22;;;;;;;;;;;;;;;4.11;100.00;99202.69;5113762;28;19923;-74
2021/01/21 01:19:00;;;;;;;;;;;;;;;4.18;100.00;99198.50;5112170;28;20014;-74
2021/01/21 01:21:25;;;;;;;;;;;;;;;4.19;100.00;99205.59;5114364;28;19928;-74
2021/01/21 01:23:52;;;;;;;;;;;;;;;4.20;100.00;99207.31;5112962;28;19967;-74
2021/01/21 01:26:20;;;;;;;;;;;;;;;4.17;100.00;99202.19;5113959;28;19930;-73
2021/01/21 01:28:47;;;;;;;;;;;;;;;4.12;100.00;99204.38;5112947;28;19989;-74
2021/01/21 01:31:13;;;;;;;;;;;;;;;4.06;100.00;99200.34;5112928;28;20456;-74
2021/01/21 01:33:40;;;;;;;;;;;;;;;4.02;100.00;99193.50;5112827;28;20514;-74
2021/01/21 01:36:07;;;;;;;;;;;;;;;4.04;100.00;99191.56;5112430;28;19977;-74
2021/01/21 01:38:33;;;;;;;;;;;;;;;4.17;100.00;99200.34;5112677;28;20297;-74
2021/01/21 01:41:09;;;;;;;;;;;;;;;4.19;100.00;99182.28;5112627;28;20366;-75
2021/01/21 01:43:35;;;;;;;;;;;;;;;4.25;100.00;99182.78;5112869;28;20005;-74
2021/01/21 01:46:02;;;;;;;;;;;;;;;4.21;100.00;99178.63;5112324;28;19924;-74
2021/01/21 01:48:28;;;;;;;;;;;;;;;4.27;100.00;99172.78;5112568;28;19931;-74
2021/01/21 01:50:59;;;;;;;;;;;;;;;4.35;100.00;99173.00;5113681;28;19973;-74
2021/01/21 01:53:28;;;;;;;;;;;;;;;4.46;100.00;99174.84;5112400;28;19924;-74
2021/01/21 01:55:56;;;;;;;;;;;;;;;4.58;100.00;99167.63;5111946;28;20338;-74
2021/01/21 01:58:30;;;;;;;;;;;;;;;4.61;100.00;99165.53;5113643;28;19935;-74
2021/01/21 02:01:02;;;;;;;;;;;;;;;4.60;100.00;99154.91;5112274;28;19973;-74
2021/01/21 02:03:30;;;;;;;;;;;;;;;4.60;100.00;99158.44;5095133;28;20367;-73
2021/01/21 02:06:15;;;;;;;;;;;;;;;4.65;100.00;99155.38;5113179;28;20014;-74
2021/01/21 02:08:42;;;;;;;;;;;;;;;4.60;100.00;99152.22;5113114;28;19923;-74
2021/01/21 02:11:14;;;;;;;;;;;;;;;4.56;100.00;99150.75;5111996;28;20380;-74
2021/01/21 02:13:46;;;;;;;;;;;;;;;4.51;100.00;99145.75;5113460;28;19924;-74
2021/01/21 02:16:22;;;;;;;;;;;;;;;4.44;100.00;99145.41;5113076;28;19923;-74
2021/01/21 02:18:53;;;;;;;;;;;;;;;4.35;100.00;99151.50;5113222;28;19924;-73
2021/01/21 02:21:40;;;;;;;;;;;;;;;4.30;100.00;99148.34;5111777;28;19924;-74
2021/01/21 02:24:21;;;;;;;;;;;;;;;4.17;100.00;99143.97;5112978;28;20471;-74
2021/01/21 02:26:51;;;;;;;;;;;;;;;4.11;100.00;99144.44;5112482;28;19931;-74
2021/01/21 02:29:20;;;;;;;;;;;;;;;4.00;100.00;99144.44;5111868;28;19923;-74
2021/01/21 02:31:55;;;;;;;;;;;;;;;3.93;100.00;99146.75;5111749;28;20377;-74
2021/01/21 02:34:24;;;;;;;;;;;;;;;3.87;100.00;99139.19;5111506;28;19924;-74
2021/01/21 02:36:52;;;;;;;;;;;;;;;3.69;100.00;99128.06;5110054;28;19928;-74
2021/01/21 02:39:44;;;;;;;;;;;;;;;3.60;100.00;99128.78;5112724;28;19924;-74
2021/01/21 02:42:10;;;;;;;;;;;;;;;3.50;100.00;99121.44;5111058;28;20386;-74
2021/01/21 02:44:36;;;;;;;;;;;;;;;3.47;100.00;99115.44;5094453;28;19991;-74
2021/01/21 02:47:02;;;;;;;;;;;;;;;3.39;100.00;99120.56;5112418;28;19924;-74
2021/01/21 02:49:31;;;;;;;;;;;;;;;3.32;100.00;99115.66;5111470;28;19976;-74
2021/01/21 02:52:04;;;;;;;;;;;;;;;3.31;100.00;99115.78;5112659;28;20434;-74
2021/01/21 02:54:34;;;;;;;;;;;;;;;3.30;100.00;99114.06;5111397;28;19931;-74
2021/01/21 02:57:04;;;;;;;;;;;;;;;3.29;100.00;99115.06;5110895;28;19924;-74
2021/01/21 02:59:33;;;;;;;;;;;;;;;3.26;100.00;99116.16;5111171;28;19924;-74
2021/01/21 03:02:01;;;;;;;;;;;;;;;3.31;100.00;99111.28;5111073;28;20008;-74
2021/01/21 03:04:28;;;;;;;;;;;;;;;3.34;100.00;99103.00;5110674;28;19971;-73
2021/01/21 03:06:58;;;;;;;;;;;;;;;3.43;100.00;99097.88;5110924;28;19951;-74
2021/01/21 03:09:34;;;;;;;;;;;;;;;3.50;100.00;99091.94;5111166;28;19929;-74
2021/01/21 03:12:19;;;;;;;;;;;;;;;3.57;100.00;99086.94;5112262;28;19965;-74
2021/01/21 03:14:45;;;;;;;;;;;;;;;3.61;100.00;99090.25;5112030;28;19923;-74
2021/01/21 03:17:14;;;;;;;;;;;;;;;3.65;100.00;99089.03;5110689;28;19931;-74
2021/01/21 03:19:44;;;;;;;;;;;;;;;3.71;100.00;99095.75;5111035;28;19931;-74
2021/01/21 03:22:14;;;;;;;;;;;;;;;3.71;100.00;99101.94;5110937;28;20010;-74
2021/01/21 03:24:40;;;;;;;;;;;;;;;3.77;100.00;99088.06;5110815;28;20361;-74
2021/01/21 03:27:13;;;;;;;;;;;;;;;3.80;100.00;99082.44;5110778;28;19932;-74
2021/01/21 03:29:40;;;;;;;;;;;;;;;3.82;100.00;99074.25;5110796;28;20124;-74
2021/01/21 03:32:09;;;;;;;;;;;;;;;3.78;100.00;99064.75;5110886;28;19956;-74
2021/01/21 03:34:48;;;;;;;;;;;;;;;3.77;100.00;99065.72;5110550;28;19923;-75
2021/01/21 03:37:15;;;;;;;;;;;;;;;3.82;100.00;99063.53;5110617;28;19924;-75
2021/01/21 03:39:45;;;;;;;;;;;;;;;3.92;100.00;99060.97;5110643;28;19923;-74
2021/01/21 03:42:26;;;;;;;;;;;;;;;4.07;100.00;99053.50;5110677;28;19924;-74
2021/01/21 03:45:12;;;;;;;;;;;;;;;4.14;100.00;99063.63;5093613;28;20263;-73
2021/01/21 03:47:39;;;;;;;;;;;;;;;4.18;100.00;99062.41;5110392;28;20014;-74
2021/01/21 03:50:06;;;;;;;;;;;;;;;4.18;100.00;99051.66;5110552;28;20384;-74
2021/01/21 03:52:36;;;;;;;;;;;;;;;4.12;100.00;99044.09;5110338;28;19923;-74
2021/01/21 03:55:07;;;;;;;;;;;;;;;4.11;100.00;99046.91;5110467;28;19930;-74
2021/01/21 03:57:33;;;;;;;;;;;;;;;4.13;100.00;99043.13;5111567;28;20701;-74
2021/01/21 04:00:16;;;;;;;;;;;;;;;4.14;100.00;99046.66;5110558;28;19970;-74
2021/01/21 04:02:45;;;;;;;;;;;;;;;4.16;100.00;99039.34;5110489;28;20018;-74
2021/01/21 04:05:20;;;;;;;;;;;;;;;4.12;100.00;99036.03;5110545;28;20351;-73
2021/01/21 04:07:46;;;;;;;;;;;;;;;4.14;100.00;99031.41;5110250;28;19924;-74
2021/01/21 04:10:12;;;;;;;;;;;;;;;4.15;100.00;99025.03;5111617;28;19958;-74
2021/01/21 04:12:51;;;;;;;;;;;;;;;4.13;100.00;99027.00;5111354;28;20030;-74
2021/01/21 04:15:18;;;;;;;;;;;;;;;4.18;100.00;99018.56;5112826;28;19924;-73
2021/01/21 04:17:46;;;;;;;;;;;;;;;4.23;100.00;99019.03;5114836;28;19924;-74
2021/01/21 04:20:13;;;;;;;;;;;;;;;4.31;100.00;99010.38;5114421;28;19988;-74
2021/01/21 04:22:39;;;;;;;;;;;;;;;4.31;100.00;98997.78;5114378;28;20023;-73
2021/01/21 04:25:07;;;;;;;;;;;;;;;4.31;100.00;99000.47;5114428;28;19924;-74
2021/01/21 04:27:41;;;;;;;;;;;;;;;4.26;100.00;98994.63;5114187;28;19930;-74
2021/01/21 04:30:07;;;;;;;;;;;;;;;4.28;100.00;98983.75;5115371;28;19924;-74
2021/01/21 04:32:34;;;;;;;;;;;;;;;4.33;100.00;98990.44;5114111;28;19928;-74
2021/01/21 04:35:00;;;;;;;;;;;;;;;4.30;100.00;98976.41;5114016;28;20000;-74
2021/01/21 04:37:26;;;;;;;;;;;;;;;4.34;100.00;98970.66;5113815;28;19924;-75
2021/01/21 04:40:01;;;;;;;;;;;;;;;4.41;100.00;98976.38;5113957;28;20369;-74
2021/01/21 04:42:31;;;;;;;;;;;;;;;4.39;100.00;98962.22;5114000;28;19924;-74
2021/01/21 04:44:57;;;;;;;;;;;;;;;4.44;100.00;98965.38;5096638;28;20011;-75
2021/01/21 04:47:28;;;;;;;;;;;;;;;4.49;100.00;98952.41;5114873;28;19938;-73
2021/01/21 04:50:14;;;;;;;;;;;;;;;4.53;100.00;98955.69;5113432;28;19953;-73
2021/01/21 04:52:55;;;;;;;;;;;;;;;4.59;100.00;98954.31;5114988;28;19977;-73
2021/01/21 04:55:29;;;;;;;;;;;;;;;4.58;100.00;98953.44;5113556;28;20018;-76
2021/01/21 04:58:26;;;;;;;;;;;;;;;4.60;100.00;98958.72;5114967;28;19924;-74
2021/01/21 05:00:56;;;;;;;;;;;;;;;4.68;100.00;98938.25;5113651;28;19924;-74
2021/01/21 05:03:23;;;;;;;;;;;;;;;4.71;100.00;98942.53;5113228;28;19930;-75
2021/01/21 05:06:11;;;;;;;;;;;;;;;4.64;100.00;98942.19;5093743;28;19924;-74
2021/01/21 05:08:38;;;;;;;;;;;;;;;4.69;100.00;98928.38;5109940;28;19924;-74
2021/01/21 05:11:19;;;;;;;;;;;;;;;4.67;100.00;98928.47;5110120;28;20286;-75
2021/01/21 05:14:06;;;;;;;;;;;;;;;4.58;100.00;98945.38;5094157;28;19923;-75
2021/01/21 05:16:51;;;;;;;;;;;;;;;4.53;100.00;98943.09;5093771;28;19931;-74
2021/01/21 05:19:36;;;;;;;;;;;;;;;4.51;100.00;98930.78;5094129;28;20042;-75
2021/01/21 05:22:36;;;;;;;;;;;;;;;4.48;100.00;98942.63;5093766;28;20452;-75
2021/01/21 05:25:21;;;;;;;;;;;;;;;4.50;100.00;98929.94;5093844;28;19930;-74
2021/01/21 05:27:56;;;;;;;;;;;;;;;4.64;100.00;98927.91;5109015;28;20389;-75
2021/01/21 05:30:45;;;;;;;;;;;;;;;4.62;100.00;98937.94;5093402;28;20278;-75
2021/01/21 05:33:12;;;;;;;;;;;;;;;4.61;100.00;98946.97;5093769;28;19959;-74
2021/01/21 05:35:53;;;;;;;;;;;;;;;4.58;100.00;98929.25;5109218;28;20438;-75
2021/01/21 05:38:22;;;;;;;;;;;;;;;4.66;100.00;98937.56;5109528;28;19931;-75
2021/01/21 05:41:08;;;;;;;;;;;;;;;4.76;100.00;98932.22;5061902;28;19955;-74
2021/01/21 05:43:50;;;;;;;;;;;;;;;4.71;100.00;98939.84;5109209;28;19967;-75
2021/01/21 05:46:26;;;;;;;;;;;;;;;4.65;100.00;98935.84;5109118;28;19924;-75
2021/01/21 05:48:52;;;;;;;;;;;;;;;4.66;100.00;98929.50;5106174;28;19928;-75
2021/01/21 05:51:22;;;;;;;;;;;;;;;4.67;100.00;98925.78;5098220;28;19977;-74
2021/01/21 05:53:52;;;;;;;;;;;;;;;4.70;100.00;98932.75;5113333;28;21458;-75
2021/01/21 05:56:33;;;;;;;;;;;;;;;4.69;100.00;98925.69;5112004;28;19969;-75
2021/01/21 05:59:14;;;;;;;;;;;;;;;4.73;100.00;98921.75;5106682;28;20602;-74
2021/01/21 06:01:41;;;;;;;;;;;;;;;4.67;100.00;98927.63;5091592;28;19924;-75
2021/01/21 06:04:13;;;;;;;;;;;;;;;4.74;100.00;98931.50;5094611;28;19932;-75
2021/01/21 06:06:41;;;;;;;;;;;;;;;4.80;100.00;98933.66;5110338;28;20007;-75
2021/01/21 06:09:07;;;;;;;;;;;;;;;4.83;100.00;98922.66;5110047;28;19924;-75
2021/01/21 06:11:33;;;;;;;;;;;;;;;4.84;100.00;98913.59;5105058;28;19924;-75
2021/01/21 06:14:00;;;;;;;;;;;;;;;4.94;100.00;98904.75;5100702;28;20281;-75
2021/01/21 06:16:26;;;;;;;;;;;;;;;4.93;100.00;98909.28;5101687;28;19924;-75
2021/01/21 06:18:52;;;;;;;;;;;;;;;4.98;100.00;98900.78;5106395;28;19955;-75
2021/01/21 06:21:40;;;;;;;;;;;;;;;5.06;100.00;98908.19;5096818;28;19989;-75
2021/01/21 06:24:14;;;;;;;;;;;;;;;5.07;100.00;98901.84;5091857;28;19946;-75
2021/01/21 06:26:47;;;;;;;;;;;;;;;5.09;100.00;98898.03;5091710;28;19931;-74
2021/01/21 06:29:15;;;;;;;;;;;;;;;5.16;100.00;98907.25;5091553;28;19928;-74
2021/01/21 06:31:41;;;;;;;;;;;;;;;5.14;100.00;98911.06;5111460;28;19955;-74
2021/01/21 06:34:11;;;;;;;;;;;;;;;5.15;100.00;98916.31;5111641;28;19957;-74
2021/01/21 06:36:40;;;;;;;;;;;;;;;5.21;100.00;98917.59;5093853;28;19924;-74
2021/01/21 06:39:09;;;;;;;;;;;;;;;5.18;100.00;98916.06;5091555;28;20019;-74
2021/01/21 06:41:35;;;;;;;;;;;;;;;5.13;100.00;98910.22;5099473;28;19941;-73
2021/01/21 06:44:00;;;;;;;;;;;;;;;5.17;100.00;98908.97;5108091;28;19924;-73
2021/01/21 06:46:26;;;;;;;;;;;;;;;5.17;100.00;98908.97;5110293;28;19923;-73
2021/01/21 06:48:52;;;;;;;;;;;;;;;5.26;100.00;98887.63;5107249;28;19932;-74
2021/01/21 06:51:19;;;;;;;;;;;;;;;5.41;100.00;98893.47;5105760;28;20333;-74
2021/01/21 06:53:46;;;;;;;;;;;;;;;5.47;100.00;98880.31;5104783;28;20388;-74
2021/01/21 06:56:12;;;;;;;;;;;;;;;5.46;100.00;98875.94;5110769;28;20385;-74
2021/01/21 06:58:44;;;;;;;;;;;;;;;5.58;100.00;98879.34;5108756;28;20381;-74
2021/01/21 07:01:33;;;;;;;;;;;;;;;5.57;100.00;98879.50;5091977;28;19935;-74
2021/01/21 07:04:18;;;;;;;;;;;;;;;5.59;100.00;98864.09;5094918;28;19939;-75
2021/01/21 07:07:03;;;;;;;;;;;;;;;5.63;100.00;98873.56;5096283;28;19940;-74
2021/01/21 07:09:28;;;;;;;;;;;;;;;5.67;100.00;98866.94;5107688;28;19967;-74
2021/01/21 07:11:55;;;;;;;;;;;;;;;5.66;100.00;98867.91;5112305;28;20034;-74
2021/01/21 07:14:22;;;;;;;;;;;;;;;5.72;100.00;98874.56;5096524;28;19923;-74
2021/01/21 07:16:48;;;;;;;;;;;;;;;5.82;100.00;98878.13;5105528;28;19962;-74
2021/01/21 07:19:15;;;;;;;;;;;;;;;5.86;100.00;98864.25;5109750;28;19932;-74
2021/01/21 07:21:51;;;;;;;;;;;;;;;5.86;100.00;98863.41;5112289;28;19924;-74
2021/01/21 07:24:16;;;;;;;;;;;;;;;5.84;100.00;98865.41;5099704;28;20011;-74
2021/01/21 07:26:42;;;;;;;;;;;;;;;5.86;100.00;98882.25;5095618;28;19947;-74
2021/01/21 07:29:09;;;;;;;;;;;;;;;5.80;100.00;98864.81;5104173;28;19931;-74
2021/01/21 07:31:55;;;;;;;;;;;;;;;5.80;100.00;98856.75;5102421;28;19943;-74
2021/01/21 07:34:22;;;;;;;;;;;;;;;5.83;100.00;98863.69;5098310;28;20011;-74
2021/01/21 07:37:10;;;;;;;;;;;;;;;5.79;100.00;98843.44;5091680;28;19963;-74
2021/01/21 07:39:49;;;;;;;;;;;;;;;5.80;100.00;98831.63;5104229;28;19974;-74
2021/01/21 07:42:15;;;;;;;;;;;;;;;5.86;100.00;98837.31;5112083;28;19924;-74
2021/01/21 07:44:53;;;;;;;;;;;;;;;5.80;100.00;98842.41;5111209;28;19923;-74
2021/01/21 07:47:29;;;;;;;;;;;;;;;5.92;100.00;98835.06;5103761;28;19993;-74
2021/01/21 07:50:14;;;;;;;;;;;;;;;5.87;100.00;98846.25;5113197;28;19924;-74
2021/01/21 07:52:41;;;;;;;;;;;;;;;5.82;100.00;98862.81;5114636;28;19966;-74
2021/01/21 07:55:07;;;;;;;;;;;;;;;5.80;100.00;98843.28;5106854;28;19955;-74
2021/01/21 07:57:33;;;;;;;;;;;;;;;5.87;100.00;98854.34;5095406;28;20023;-73
2021/01/21 07:59:59;;;;;;;;;;;;;;;5.94;100.00;98835.78;5102599;28;19987;-73
2021/01/21 08:02:25;;;;;;;;;;;;;;;5.99;100.00;98830.84;5114053;28;19968;-74
2021/01/21 08:04:57;;;;;;;;;;;;;;;5.99;100.00;98838.94;5101407;28;20365;-74
2021/01/21 08:07:23;;;;;;;;;;;;;;;5.95;100.00;98849.09;5096423;28;19924;-74
2021/01/21 08:10:04;;;;;;;;;;;;;;;5.97;100.00;98830.97;5115708;28;19924;-75
2021/01/21 08:12:30;;;;;;;;;;;;;;;6.15;100.00;98823.03;5114251;28;19974;-74
2021/01/21 08:14:56;;;;;;;;;;;;;;;6.16;100.00;98821.19;5096359;28;20011;-74
2021/01/21 08:17:22;;;;;;;;;;;;;;;6.24;100.00;98817.78;5106411;28;20416;-74
2021/01/21 08:19:48;;;;;;;;;;;;;;;6.29;100.00;98837.91;5095291;28;19924;-74
2021/01/21 08:22:13;;;;;;;;;;;;;;;6.31;100.00;98808.16;5103400;28;19981;-73
2021/01/21 08:24:54;;;;;;;;;;;;;;;6.52;100.00;98816.03;5112885;28;19948;-73
2021/01/21 08:27:20;;;;;;;;;;;;;;;6.61;100.00;98825.94;5115252;28;20461;-73
2021/01/21 08:29:46;;;;;;;;;;;;;;;7.26;100.00;98827.00;5097852;28;19924;-73
2021/01/21 08:32:12;;;;;;;;;;;;;;;7.92;100.00;98825.84;5095969;28;19956;-72
2021/01/21 08:34:38;;;;;;;;;;;;;;;8.55;96.60;98826.75;5096202;28;19976;-72
2021/01/21 08:37:04;;;;;;;;;;;;;;;8.94;92.72;98820.94;5110505;28;19964;-74
2021/01/21 08:39:30;;;;;;;;;;;;;;;9.38;87.42;98818.06;5112981;28;19947;-73
2021/01/21 08:41:56;;;;;;;;;;;;;;;9.51;86.03;98801.38;5094860;28;20390;-73
2021/01/21 08:44:22;;;;;;;;;;;;;;;9.77;83.37;98818.50;5100609;28;19924;-73
2021/01/21 08:46:56;;;;;;;;;;;;;;;9.98;80.01;98813.50;5106201;28;19924;-73
2021/01/21 08:49:23;;;;;;;;;;;;;;;10.28;79.42;98810.28;5099383;28;19924;-76
2021/01/21 08:51:48;;;;;;;;;;;;;;;9.98;79.04;98770.13;5101111;28;20004;-74
2021/01/21 08:54:15;;;;;;;;;;;;;;;10.18;78.46;98815.88;5113500;28;19928;-71
2021/01/21 08:56:41;;;;;;;;;;;;;;;10.04;78.53;98815.50;5094521;28;19931;-70
2021/01/21 08:59:26;;;;;;;;;;;;;;;9.96;78.35;98815.50;5094648;28;19924;-70
2021/01/21 09:01:52;;;;;;;;;;;;;;;10.09;77.89;98820.44;5094403;28;19971;-71
2021/01/21 09:04:26;;;;;;;;;;;;;;;10.10;75.64;98805.88;5114994;28;19928;-70
2021/01/21 09:06:55;;;;;;;;;;;;;;;10.42;77.01;98817.75;5112010;28;19924;-70
2021/01/21 09:09:24;;;;;;;;;;;;;;;10.52;74.43;98814.88;5103666;28;19931;-70
2021/01/21 09:11:50;;;;;;;;;;;;;;;10.60;71.28;98811.31;5114287;28;19939;-70
2021/01/21 09:14:18;;;;;;;;;;;;;;;10.76;69.44;98805.84;5110298;28;20100;-71
2021/01/21 09:16:45;;;;;;;;;;;;;;;10.93;68.40;98812.09;5114374;28;20308;-71
2021/01/21 09:19:11;;;;;;;;;;;;;;;11.09;65.69;98810.34;5114022;28;19997;-70
2021/01/21 09:21:38;;;;;;;;;;;;;;;11.47;64.03;98808.66;5114336;28;19931;-72
2021/01/21 09:24:04;;;;;;;;;;;;;;;11.73;61.40;98792.06;5111864;28;20350;-72
2021/01/21 09:26:30;;;;;;;;;;;;;;;11.75;59.94;98788.31;5114402;28;20335;-71
2021/01/21 09:28:58;;;;;;;;;;;;;;;11.51;60.73;98799.13;5113690;28;19924;-72
2021/01/21 09:31:26;;;;;;;;;;;;;;;11.00;63.02;98779.69;5114514;28;19986;-72
2021/01/21 09:33:52;;;;;;;;;;;;;;;10.88;65.75;98771.91;5101069;28;20388;-72
2021/01/21 09:36:18;;;;;;;;;;;;;;;11.33;64.13;98790.38;5093780;28;19996;-77
2021/01/21 09:38:45;;;;;;;;;;;;;;;11.53;63.04;98779.94;5095960;28;20393;-78
2021/01/21 09:41:11;;;;;;;;;;;;;;;11.73;60.38;98785.75;5096781;28;19935;-78
2021/01/21 09:43:38;;;;;;;;;;;;;;;12.01;58.07;98771.66;5099637;28;19924;-77
2021/01/21 09:46:04;;;;;;;;;;;;;;;12.06;57.79;98788.28;5113679;28;19970;-78
2021/01/21 09:48:30;;;;;;;;;;;;;;;12.32;56.36;98806.97;5098029;28;20331;-77
2021/01/21 09:50:56;;;;;;;;;;;;;;;12.58;54.97;98799.44;5093665;28;19924;-76
2021/01/21 09:53:22;;;;;;;;;;;;;;;12.71;55.42;98805.94;5107133;28;20438;-78
2021/01/21 09:55:50;;;;;;;;;;;;;;;12.64;54.54;98828.63;5106661;28;19970;-78
2021/01/21 09:58:15;;;;;;;;;;;;;;;12.71;54.26;98813.25;5093512;28;19932;-77
2021/01/21 10:00:41;;;;;;;;;;;;;;;12.73;54.90;98824.78;5093318;28;20006;-78
2021/01/21 10:03:07;;;;;;;;;;;;;;;12.71;54.44;98807.81;5093455;28;19924;-77
2021/01/21 10:05:33;;;;;;;;;;;;;;;12.99;54.23;98837.16;5101918;28;19998;-78
2021/01/21 10:07:59;;;;;;;;;;;;;;;12.95;54.59;98827.63;5113763;28;20278;-78
2021/01/21 10:10:24;;;;;;;;;;;;;;;12.92;55.83;98820.72;5111371;28;19927;-77
2021/01/21 10:12:51;;;;;;;;;;;;;;;12.92;56.13;98826.16;5100468;28;19931;-76
2021/01/21 10:15:17;;;;;;;;;;;;;;;13.11;55.86;98822.03;5112286;28;20373;-75
2021/01/21 10:17:42;;;;;;;;;;;;;;;13.30;54.72;98834.22;5104382;28;20027;-76
2021/01/21 10:20:09;;;;;;;;;;;;;;;13.42;52.99;98823.72;5113345;28;19923;-76
2021/01/21 10:22:35;;;;;;;;;;;;;;;13.00;54.07;98812.44;5111306;28;20030;-75
2021/01/21 10:25:01;;;;;;;;;;;;;;;12.38;56.65;98827.16;5112179;28;20281;-75
2021/01/21 10:27:27;;;;;;;;;;;;;;;11.80;59.95;98841.13;5101790;28;19932;-75
2021/01/21 10:29:53;;;;;;;;;;;;;;;11.42;64.14;98849.09;5092642;28;19970;-75
2021/01/21 10:32:19;;;;;;;;;;;;;;;11.05;65.38;98840.56;5098690;28;20589;-75
2021/01/21 10:34:45;;;;;;;;;;;;;;;11.53;65.58;98858.72;5093315;28;19962;-75
2021/01/21 10:37:11;;;;;;;;;;;;;;;11.92;61.87;98843.41;5092469;28;19928;-75
2021/01/21 10:39:37;;;;;;;;;;;;;;;12.15;61.65;98848.94;5101656;28;19924;-75
2021/01/21 10:42:02;;;;;;;;;;;;;;;12.28;59.68;98851.03;5105830;28;19931;-75
2021/01/21 10:44:28;;;;;;;;;;;;;;;12.53;58.43;98843.50;5107829;28;20334;-76
2021/01/21 10:46:55;;;;;;;;;;;;;;;12.72;57.33;98844.91;5096166;28;19957;-76
2021/01/21 10:49:21;;;;;;;;;;;;;;;12.99;57.86;98842.59;5097146;28;19959;-76
2021/01/21 10:51:46;;;;;;;;;;;;;;;13.02;56.52;98845.78;5103586;28;20385;-76
2021/01/21 10:54:12;;;;;;;;;;;;;;;13.07;58.81;98853.41;5105329;28;19928;-76
2021/01/21 10:56:38;;;;;;;;;;;;;;;12.70;56.11;98839.63;5112589;28;19969;-76
2021/01/21 10:59:05;;;;;;;;;;;;;;;12.28;57.08;98845.59;5106709;28;19927;-76
2021/01/21 11:01:32;;;;;;;;;;;;;;;12.02;61.24;98839.47;5111533;27;19923;-75
2021/01/21 11:03:58;;;;;;;;;;;;;;;11.84;62.37;98855.22;5115106;27;19932;-76
2021/01/21 11:06:24;;;;;;;;;;;;;;;11.83;64.19;98848.91;5109412;28;19967;-75
2021/01/21 11:08:50;;;;;;;;;;;;;;;11.81;63.90;98845.53;5101577;28;20027;-75
2021/01/21 11:11:16;;;;;;;;;;;;;;;11.72;65.38;98843.88;5111386;28;19924;-75
2021/01/21 11:13:42;;;;;;;;;;;;;;;11.54;67.23;98834.13;5112238;28;20038;-75
2021/01/21 11:16:09;;;;;;;;;;;;;;;11.42;68.18;98843.66;5112741;28;20349;-76
2021/01/21 11:18:35;;;;;;;;;;;;;;;11.39;69.59;98838.59;5113679;28;19924;-76
2021/01/21 11:21:02;;;;;;;;;;;;;;;11.32;72.01;98845.75;5113188;28;20529;-75
2021/01/21 11:23:28;;;;;;;;;;;;;;;11.22;73.45;98827.81;5113320;28;20402;-76
2021/01/21 11:25:54;;;;;;;;;;;;;;;11.19;73.49;98838.16;5112009;28;19950;-77
2021/01/21 11:28:21;;;;;;;;;;;;;;;11.10;72.31;98840.03;5112374;28;19958;-76
2021/01/21 11:30:47;;;;;;;;;;;;;;;11.03;72.31;98829.03;5112622;28;19930;-77
2021/01/21 11:33:13;;;;;;;;;;;;;;;10.98;76.23;98833.28;5112424;28;19924;-76
2021/01/21 11:35:40;;;;;;;;;;;;;;;10.92;77.16;98837.56;5112314;28;19924;-75
2021/01/21 11:38:06;;;;;;;;;;;;;;;10.93;76.89;98846.53;5112614;28;20007;-77
2021/01/21 11:40:32;;;;;;;;;;;;;;;10.94;78.37;98824.63;5112171;28;19928;-75
2021/01/21 11:42:58;;;;;;;;;;;;;;;10.93;77.30;98824.81;5112300;28;19931;-76
2021/01/21 11:45:24;;;;;;;;;;;;;;;10.89;76.92;98817.03;5112618;28;19958;-76
2021/01/21 11:47:49;;;;;;;;;;;;;;;10.88;78.17;98807.19;5112339;28;19946;-77
2021/01/21 11:50:16;;;;;;;;;;;;;;;10.82;80.66;98805.19;5112842;28;20004;-77
2021/01/21 11:52:42;;;;;;;;;;;;;;;10.81;80.46;98803.47;5112762;28;19975;-76
2021/01/21 11:55:09;;;;;;;;;;;;;;;10.79;81.76;98805.50;5112846;28;19947;-76
2021/01/21 11:57:35;;;;;;;;;;;;;;;10.76;81.94;98800.44;5111201;28;19931;-76
2021/01/21 12:00:01;;;;;;;;;;;;;;;10.77;83.22;98799.41;5112195;28;19924;-77
2021/01/21 12:02:27;;;;;;;;;;;;;;;10.77;82.84;98796.72;5112224;28;19924;-76
2021/01/21 12:04:53;;;;;;;;;;;;;;;10.78;82.56;98803.81;5112404;28;20555;-76
2021/01/21 12:07:19;;;;;;;;;;;;;;;10.77;83.29;98793.13;5112250;28;19924;-76
2021/01/21 12:09:44;;;;;;;;;;;;;;;10.74;83.19;98804.34;5112093;28;19928;-76
2021/01/21 12:12:11;;;;;;;;;;;;;;;10.77;83.06;98798.56;5110456;28;19927;-77
2021/01/21 12:14:37;;;;;;;;;;;;;;;10.77;83.36;98795.84;5111970;28;19962;-75
2021/01/21 12:17:03;;;;;;;;;;;;;;;10.75;84.88;98808.75;5110330;28;19924;-75
2021/01/21 12:19:28;;;;;;;;;;;;;;;10.71;84.76;98791.97;5112044;28;19923;-76
2021/01/21 12:21:55;;;;;;;;;;;;;;;10.68;85.16;98797.75;5111637;28;20431;-75
2021/01/21 12:24:20;;;;;;;;;;;;;;;10.69;88.88;98789.41;5110418;28;20015;-75
2021/01/21 12:26:46;;;;;;;;;;;;;;;10.70;86.09;98792.97;5111692;28;19924;-75
2021/01/21 12:29:13;;;;;;;;;;;;;;;10.72;85.21;98793.66;5111772;28;20389;-75
2021/01/21 12:31:39;;;;;;;;;;;;;;;10.74;86.23;98807.88;5111822;28;20043;-75
2021/01/21 12:34:04;;;;;;;;;;;;;;;10.80;85.50;98801.78;5111565;28;20393;-75
2021/01/21 12:36:32;;;;;;;;;;;;;;;10.82;85.24;98799.75;5112135;28;19924;-76
2021/01/21 12:38:58;;;;;;;;;;;;;;;10.92;84.40;98796.00;5115030;28;20381;-74
2021/01/21 12:41:24;;;;;;;;;;;;;;;11.01;83.16;98792.22;5104652;28;19931;-76
2021/01/21 12:43:49;;;;;;;;;;;;;;;11.08;82.30;98785.06;5106336;28;20045;-77
2021/01/21 12:46:16;;;;;;;;;;;;;;;11.13;83.49;98782.69;5108327;28;19930;-75
2021/01/21 12:48:42;;;;;;;;;;;;;;;11.21;81.73;98795.34;5097994;27;20461;-76
2021/01/21 12:51:07;;;;;;;;;;;;;;;11.34;80.34;98800.25;5112192;28;19924;-75
2021/01/21 12:53:33;;;;;;;;;;;;;;;11.33;81.21;98796.69;5112066;28;19927;-75
2021/01/21 12:55:59;;;;;;;;;;;;;;;11.35;81.11;98799.22;5114476;28;19923;-75
2021/01/21 12:58:25;;;;;;;;;;;;;;;11.33;81.55;98809.41;5112450;28;20113;-76